createdAt,value
2023-12-23T00:00:16.416Z,9.45
2023-12-23T00:02:43.386Z,9.43
2023-12-23T00:05:10.599Z,9.35
2023-12-23T00:07:37.722Z,9.27
2023-12-23T00:10:05.866Z,9.21
2023-12-23T00:12:35.526Z,9.28
2023-12-23T00:15:02.578Z,9.28
2023-12-23T00:17:29.787Z,9.27
2023-12-23T00:19:57.160Z,9.24
2023-12-23T00:22:24.172Z,9.25
2023-12-23T00:24:51.127Z,9.21
2023-12-23T00:27:18.132Z,9.17
2023-12-23T00:29:47.773Z,9.16
2023-12-23T00:32:14.755Z,9.16
2023-12-23T00:34:41.758Z,9.16
2023-12-23T00:37:08.809Z,9.17
2023-12-23T00:39:35.764Z,9.18
2023-12-23T00:42:02.751Z,9.16
2023-12-23T00:44:29.754Z,9.15
2023-12-23T00:46:59.338Z,9.14
2023-12-23T00:49:26.448Z,9.11
2023-12-23T00:51:53.520Z,9.02
2023-12-23T00:54:20.530Z,8.99
2023-12-23T00:56:47.542Z,8.88
2023-12-23T00:59:14.588Z,8.80
2023-12-23T01:01:43.228Z,8.76
2023-12-23T01:04:12.824Z,8.78
2023-12-23T01:06:39.906Z,8.82
2023-12-23T01:09:06.979Z,8.84
2023-12-23T01:11:33.971Z,8.86
2023-12-23T01:14:01.008Z,8.87
2023-12-23T01:16:28.108Z,8.87
2023-12-23T01:18:55.149Z,8.95
2023-12-23T01:21:24.799Z,9.02
2023-12-23T01:23:51.813Z,8.98
2023-12-23T01:26:18.953Z,8.99
2023-12-23T01:28:46.013Z,9.04
2023-12-23T01:31:13.016Z,9.03
2023-12-23T01:33:40.114Z,9.01
2023-12-23T01:36:07.851Z,9.06
2023-12-23T01:38:37.519Z,9.07
2023-12-23T01:41:04.898Z,9.07
2023-12-23T01:43:31.948Z,9.10
2023-12-23T01:46:01.417Z,9.08
2023-12-23T01:48:30.603Z,9.10
2023-12-23T01:50:59.092Z,9.06
2023-12-23T01:53:27.752Z,9.01
2023-12-23T01:55:58.139Z,9.03
2023-12-23T01:58:25.161Z,9.02
2023-12-23T02:00:52.553Z,9.01
2023-12-23T02:03:19.909Z,9.09
2023-12-23T02:05:47.302Z,9.12
2023-12-23T02:08:14.916Z,9.13
2023-12-23T02:10:42.314Z,9.14
2023-12-23T02:13:22.595Z,9.17
2023-12-23T02:15:53.924Z,9.15
2023-12-23T02:18:23.975Z,9.18
2023-12-23T02:20:55.311Z,9.22
2023-12-23T02:23:22.484Z,9.21
2023-12-23T02:25:56.688Z,9.25
2023-12-23T02:28:25.756Z,9.27
2023-12-23T02:30:55.179Z,9.27
2023-12-23T02:33:22.795Z,9.27
2023-12-23T02:35:50.069Z,9.27
2023-12-23T02:38:20.854Z,9.28
2023-12-23T02:40:47.917Z,9.30
2023-12-23T02:43:14.937Z,9.33
2023-12-23T02:45:42.007Z,9.35
2023-12-23T02:48:09.105Z,9.31
2023-12-23T02:50:36.134Z,9.32
2023-12-23T02:53:03.262Z,9.36
2023-12-23T02:55:32.828Z,9.33
2023-12-23T02:57:59.777Z,9.32
2023-12-23T03:00:26.816Z,9.32
2023-12-23T03:02:53.878Z,9.32
2023-12-23T03:05:20.864Z,9.30
2023-12-23T03:07:47.958Z,9.28
2023-12-23T03:10:15.012Z,9.26
2023-12-23T03:12:44.605Z,9.21
2023-12-23T03:15:11.683Z,9.22
2023-12-23T03:17:38.696Z,9.19
2023-12-23T03:20:07.691Z,9.21
2023-12-23T03:22:34.790Z,9.21
2023-12-23T03:25:01.743Z,9.16
2023-12-23T03:27:28.679Z,9.21
2023-12-23T03:29:58.236Z,9.16
2023-12-23T03:32:25.302Z,9.19
2023-12-23T03:34:52.420Z,9.11
2023-12-23T03:37:19.535Z,9.13
2023-12-23T03:39:46.532Z,9.16
2023-12-23T03:42:13.516Z,9.08
2023-12-23T03:44:40.584Z,9.14
2023-12-23T03:47:10.142Z,9.12
2023-12-23T03:49:37.202Z,9.14
2023-12-23T03:52:04.749Z,9.17
2023-12-23T03:54:31.761Z,9.21
2023-12-23T03:56:58.734Z,9.16
2023-12-23T03:59:25.797Z,9.19
2023-12-23T04:01:52.930Z,9.19
2023-12-23T04:04:22.488Z,9.15
2023-12-23T04:06:49.473Z,9.15
2023-12-23T04:09:18.365Z,9.18
2023-12-23T04:11:45.489Z,9.14
2023-12-23T04:14:12.607Z,9.17
2023-12-23T04:16:39.718Z,9.17
2023-12-23T04:19:06.852Z,9.20
2023-12-23T04:21:36.727Z,9.18
2023-12-23T04:24:04.195Z,9.16
2023-12-23T04:26:31.407Z,9.17
2023-12-23T04:28:58.519Z,9.15
2023-12-23T04:31:25.741Z,9.13
2023-12-23T04:33:52.913Z,9.11
2023-12-23T04:36:20.118Z,9.16
2023-12-23T04:38:49.815Z,9.17
2023-12-23T04:41:17.016Z,9.19
2023-12-23T04:43:44.153Z,9.17
2023-12-23T04:46:11.428Z,9.17
2023-12-23T04:48:38.511Z,9.13
2023-12-23T04:51:05.935Z,9.15
2023-12-23T04:53:32.977Z,9.12
2023-12-23T04:56:02.635Z,9.07
2023-12-23T04:58:29.647Z,9.06
2023-12-23T05:00:56.680Z,9.05
2023-12-23T05:03:23.965Z,9.02
2023-12-23T05:05:51.101Z,8.99
2023-12-23T05:08:18.356Z,8.95
2023-12-23T05:10:45.472Z,8.98
2023-12-23T05:13:15.768Z,8.91
2023-12-23T05:15:42.785Z,8.84
2023-12-23T05:18:09.817Z,8.73
2023-12-23T05:20:36.958Z,8.71
2023-12-23T05:23:04.203Z,8.68
2023-12-23T05:25:31.253Z,8.63
2023-12-23T05:27:58.286Z,8.62
2023-12-23T05:30:27.977Z,8.67
2023-12-23T05:32:55.249Z,8.65
2023-12-23T05:35:22.566Z,8.66
2023-12-23T05:37:49.692Z,8.63
2023-12-23T05:40:16.918Z,8.63
2023-12-23T05:42:43.978Z,8.59
2023-12-23T05:45:11.225Z,8.54
2023-12-23T05:47:40.967Z,8.55
2023-12-23T05:50:09.241Z,8.60
2023-12-23T05:52:36.254Z,8.56
2023-12-23T05:55:03.414Z,8.57
2023-12-23T05:57:30.382Z,8.59
2023-12-23T05:59:57.348Z,8.59
2023-12-23T06:02:24.493Z,8.57
2023-12-23T06:04:54.112Z,8.56
2023-12-23T06:07:21.106Z,8.59
2023-12-23T06:09:48.168Z,8.54
2023-12-23T06:12:15.174Z,8.58
2023-12-23T06:14:42.722Z,8.61
2023-12-23T06:17:09.871Z,8.57
2023-12-23T06:19:36.885Z,8.59
2023-12-23T06:22:06.550Z,8.58
2023-12-23T06:24:33.536Z,8.59
2023-12-23T06:27:00.561Z,8.62
2023-12-23T06:29:27.585Z,8.62
2023-12-23T06:31:54.815Z,8.67
2023-12-23T06:34:21.784Z,8.68
2023-12-23T06:36:48.709Z,8.67
2023-12-23T06:39:18.292Z,8.72
2023-12-23T06:41:47.930Z,8.75
2023-12-23T06:44:15.234Z,8.73
2023-12-23T06:46:42.245Z,8.76
2023-12-23T06:49:09.342Z,8.72
2023-12-23T06:51:36.372Z,8.71
2023-12-23T06:54:03.355Z,8.67
2023-12-23T06:56:32.976Z,8.62
2023-12-23T06:58:59.987Z,8.54
2023-12-23T07:01:36.315Z,8.54
2023-12-23T07:04:03.439Z,8.51
2023-12-23T07:06:30.522Z,8.50
2023-12-23T07:08:57.541Z,8.41
2023-12-23T07:11:25.337Z,8.36
2023-12-23T07:13:55.059Z,8.36
2023-12-23T07:16:22.109Z,8.29
2023-12-23T07:18:49.122Z,8.26
2023-12-23T07:21:16.133Z,8.22
2023-12-23T07:23:43.145Z,8.24
2023-12-23T07:26:12.472Z,8.20
2023-12-23T07:28:39.557Z,8.18
2023-12-23T07:31:09.249Z,8.17
2023-12-23T07:33:36.291Z,8.19
2023-12-23T07:36:03.662Z,8.16
2023-12-23T07:38:31.007Z,8.14
2023-12-23T07:40:58.202Z,8.18
2023-12-23T07:43:25.236Z,8.18
2023-12-23T07:45:52.270Z,8.18
2023-12-23T07:48:21.856Z,8.18
2023-12-23T07:50:48.913Z,8.13
2023-12-23T07:53:16.092Z,8.14
2023-12-23T07:55:43.199Z,8.11
2023-12-23T07:58:10.194Z,8.12
2023-12-23T08:00:37.319Z,8.08
2023-12-23T08:03:04.884Z,8.14
2023-12-23T08:05:34.520Z,8.11
2023-12-23T08:08:01.616Z,8.16
2023-12-23T08:10:28.642Z,8.21
2023-12-23T08:12:55.652Z,8.20
2023-12-23T08:15:22.654Z,8.27
2023-12-23T08:17:49.844Z,8.30
2023-12-23T08:20:17.074Z,8.34
2023-12-23T08:22:46.870Z,8.38
2023-12-23T08:25:13.982Z,8.44
2023-12-23T08:27:41.127Z,8.46
2023-12-23T08:30:09.598Z,8.50
2023-12-23T08:32:36.787Z,8.58
2023-12-23T08:35:04.207Z,8.57
2023-12-23T08:37:31.186Z,8.61
2023-12-23T08:40:00.761Z,8.63
2023-12-23T08:42:27.714Z,8.61
2023-12-23T08:44:54.936Z,8.63
2023-12-23T08:47:22.015Z,8.63
2023-12-23T08:49:49.001Z,8.62
2023-12-23T08:52:16.066Z,8.63
2023-12-23T08:54:43.038Z,8.64
2023-12-23T08:57:12.688Z,8.60
2023-12-23T08:59:39.650Z,8.65
2023-12-23T09:02:06.729Z,8.64
2023-12-23T09:04:33.761Z,8.63
2023-12-23T09:07:01.042Z,8.63
2023-12-23T09:09:28.042Z,8.71
2023-12-23T09:11:55.072Z,8.70
2023-12-23T09:14:24.821Z,8.70
2023-12-23T09:16:51.919Z,8.72
2023-12-23T09:19:19.010Z,8.68
2023-12-23T09:21:46.046Z,8.68
2023-12-23T09:24:13.158Z,8.68
2023-12-23T09:26:40.140Z,8.63
2023-12-23T09:29:07.156Z,8.63
2023-12-23T09:31:36.782Z,8.63
2023-12-23T09:34:04.055Z,8.67
2023-12-23T09:36:31.256Z,8.72
2023-12-23T09:38:58.343Z,8.72
2023-12-23T09:41:25.580Z,8.67
2023-12-23T09:43:53.786Z,8.75
2023-12-23T09:46:20.975Z,8.67
2023-12-23T09:48:50.947Z,8.72
2023-12-23T09:51:18.104Z,8.61
2023-12-23T09:53:48.074Z,8.57
2023-12-23T09:56:15.366Z,8.54
2023-12-23T09:58:44.750Z,8.56
2023-12-23T10:01:12.127Z,8.51
2023-12-23T10:03:39.240Z,8.48
2023-12-23T10:06:12.473Z,8.50
2023-12-23T10:08:40.211Z,8.50
2023-12-23T10:11:07.261Z,8.50
2023-12-23T10:13:34.300Z,8.53
2023-12-23T10:16:01.394Z,8.46
2023-12-23T10:18:28.563Z,8.45
2023-12-23T10:20:55.669Z,8.52
2023-12-23T10:23:25.381Z,8.44
2023-12-23T10:25:52.902Z,8.48
2023-12-23T10:28:20.987Z,8.48
2023-12-23T10:30:49.289Z,8.54
2023-12-23T10:33:18.325Z,8.54
2023-12-23T10:35:46.722Z,8.52
2023-12-23T10:38:16.658Z,8.58
2023-12-23T10:40:52.213Z,8.57
2023-12-23T10:43:20.938Z,8.57
2023-12-23T10:45:49.623Z,8.59
2023-12-23T10:48:18.171Z,8.69
2023-12-23T10:50:49.015Z,8.58
2023-12-23T10:53:18.629Z,8.48
2023-12-23T10:55:49.091Z,8.49
2023-12-23T10:58:19.624Z,8.52
2023-12-23T11:00:46.674Z,8.59
2023-12-23T11:03:14.485Z,8.62
2023-12-23T11:05:43.739Z,8.59
2023-12-23T11:08:17.696Z,8.56
2023-12-23T11:10:49.414Z,8.59
2023-12-23T11:13:16.948Z,8.58
2023-12-23T11:15:43.983Z,8.59
2023-12-23T11:18:11.362Z,8.63
2023-12-23T11:20:45.804Z,8.72
2023-12-23T11:23:34.814Z,8.68
2023-12-23T11:26:05.219Z,8.67
2023-12-23T11:28:35.896Z,8.68
2023-12-23T11:31:04.597Z,8.68
2023-12-23T11:33:34.841Z,8.70
2023-12-23T11:36:03.170Z,8.72
2023-12-23T11:38:45.314Z,8.73
2023-12-23T11:41:15.704Z,8.80
2023-12-23T11:43:45.744Z,8.79
2023-12-23T11:46:13.705Z,8.79
2023-12-23T11:48:41.354Z,8.72
2023-12-23T11:51:08.955Z,8.74
2023-12-23T11:53:36.224Z,8.81
2023-12-23T11:56:05.432Z,8.77
2023-12-23T11:58:35.176Z,8.83
2023-12-23T12:01:02.283Z,8.86
2023-12-23T12:03:29.413Z,8.89
2023-12-23T12:05:57.255Z,8.93
2023-12-23T12:08:26.978Z,8.86
2023-12-23T12:10:54.976Z,8.89
2023-12-23T12:13:22.075Z,8.88
2023-12-23T12:15:51.788Z,8.92
2023-12-23T12:18:18.862Z,8.83
2023-12-23T12:20:46.377Z,8.83
2023-12-23T12:23:13.436Z,8.71
2023-12-23T12:25:40.993Z,8.67
2023-12-23T12:28:08.071Z,8.70
2023-12-23T12:30:35.119Z,8.71
2023-12-23T12:33:04.859Z,8.73
2023-12-23T12:35:31.938Z,8.71
2023-12-23T12:38:02.800Z,8.78
2023-12-23T12:40:35.017Z,8.72
2023-12-23T12:43:05.771Z,8.79
2023-12-23T12:45:37.923Z,8.88
2023-12-23T12:48:10.166Z,8.79
2023-12-23T12:50:39.569Z,8.77
2023-12-23T12:53:06.614Z,8.83
2023-12-23T12:55:33.799Z,8.83
2023-12-23T12:58:00.807Z,8.81
2023-12-23T13:00:27.799Z,8.88
2023-12-23T13:02:55.099Z,8.84
2023-12-23T13:05:24.861Z,8.84
2023-12-23T13:07:51.991Z,8.84
2023-12-23T13:10:19.120Z,8.91
2023-12-23T13:12:46.183Z,8.97
2023-12-23T13:15:13.188Z,9.02
2023-12-23T13:17:40.562Z,9.03
2023-12-23T13:20:09.239Z,9.10
2023-12-23T13:22:39.217Z,9.07
2023-12-23T13:25:07.485Z,9.04
2023-12-23T13:27:34.595Z,9.05
2023-12-23T13:30:01.703Z,9.09
2023-12-23T13:32:28.915Z,9.05
2023-12-23T13:34:57.005Z,9.13
2023-12-23T13:37:24.075Z,9.07
2023-12-23T13:39:53.760Z,9.07
2023-12-23T13:42:20.857Z,9.00
2023-12-23T13:44:48.031Z,9.04
2023-12-23T13:47:15.293Z,9.11
2023-12-23T13:49:42.402Z,9.12
2023-12-23T13:52:09.554Z,9.19
2023-12-23T13:54:36.998Z,9.15
2023-12-23T13:57:06.677Z,9.08
2023-12-23T13:59:33.654Z,9.06
2023-12-23T14:02:00.877Z,9.00
2023-12-23T14:04:27.954Z,8.94
2023-12-23T14:06:54.920Z,8.87
2023-12-23T14:09:21.928Z,8.87
2023-12-23T14:11:48.940Z,8.87
2023-12-23T14:14:18.686Z,8.88
2023-12-23T14:16:45.750Z,8.89
2023-12-23T14:19:12.974Z,8.97
2023-12-23T14:21:39.974Z,8.94
2023-12-23T14:24:07.295Z,8.93
2023-12-23T14:26:34.454Z,8.92
2023-12-23T14:29:01.517Z,8.96
2023-12-23T14:31:31.309Z,8.96
2023-12-23T14:33:58.564Z,8.99
2023-12-23T14:36:25.973Z,8.97
2023-12-23T14:38:53.526Z,8.91
2023-12-23T14:41:20.641Z,8.92
2023-12-23T14:43:47.757Z,8.94
2023-12-23T14:46:14.811Z,8.97
2023-12-23T14:48:44.516Z,9.01
2023-12-23T14:51:11.536Z,8.97
2023-12-23T14:53:38.658Z,8.95
2023-12-23T14:56:06.056Z,8.97
2023-12-23T14:58:33.064Z,8.95
2023-12-23T15:01:00.048Z,8.91
2023-12-23T15:03:27.181Z,8.95
2023-12-23T15:05:56.889Z,8.92
2023-12-23T15:08:24.011Z,8.90
2023-12-23T15:10:51.035Z,8.93
2023-12-23T15:13:17.987Z,8.94
2023-12-23T15:15:44.962Z,8.95
2023-12-23T15:18:14.382Z,8.93
2023-12-23T15:20:41.447Z,8.98
2023-12-23T15:23:11.097Z,8.93
2023-12-23T15:25:38.299Z,8.96
2023-12-23T15:28:05.508Z,8.97
2023-12-23T15:30:32.553Z,9.00
2023-12-23T15:32:59.698Z,9.01
2023-12-23T15:35:26.774Z,9.03
2023-12-23T15:37:53.848Z,9.06
2023-12-23T15:40:23.544Z,9.05
2023-12-23T15:42:50.925Z,9.11
2023-12-23T15:45:18.197Z,9.13
2023-12-23T15:47:45.331Z,9.13
2023-12-23T15:50:12.472Z,9.20
2023-12-23T15:52:39.466Z,9.20
2023-12-23T15:55:07.860Z,9.23
2023-12-23T15:57:38.412Z,9.25
2023-12-23T16:00:06.718Z,9.24
2023-12-23T16:02:33.746Z,9.27
2023-12-23T16:05:00.946Z,9.28
2023-12-23T16:07:28.044Z,9.32
2023-12-23T16:09:54.985Z,9.31
2023-12-23T16:12:22.147Z,9.34
2023-12-23T16:14:51.772Z,9.38
2023-12-23T16:17:18.803Z,9.39
2023-12-23T16:19:45.875Z,9.38
2023-12-23T16:22:12.957Z,9.37
2023-12-23T16:24:40.065Z,9.43
2023-12-23T16:27:07.534Z,9.46
2023-12-23T16:29:34.579Z,9.42
2023-12-23T16:32:04.741Z,9.43
2023-12-23T16:34:31.759Z,9.46
2023-12-23T16:36:58.737Z,9.46
2023-12-23T16:39:25.897Z,9.46
2023-12-23T16:41:52.899Z,9.47
2023-12-23T16:44:20.045Z,9.47
2023-12-23T16:46:47.138Z,9.49
2023-12-23T16:49:16.970Z,9.49
2023-12-23T16:51:44.013Z,9.50
2023-12-23T16:54:11.092Z,9.53
2023-12-23T16:56:38.441Z,9.54
2023-12-23T16:59:05.571Z,9.57
2023-12-23T17:01:32.760Z,9.59
2023-12-23T17:03:59.865Z,9.59
2023-12-23T17:06:29.533Z,9.59
2023-12-23T17:08:59.626Z,9.61
2023-12-23T17:11:26.786Z,9.60
2023-12-23T17:13:53.858Z,9.63
2023-12-23T17:16:20.970Z,9.65
2023-12-23T17:18:48.429Z,9.65
2023-12-23T17:21:15.539Z,9.65
2023-12-23T17:23:45.305Z,9.63
2023-12-23T17:26:12.356Z,9.66
2023-12-23T17:28:39.349Z,9.65
2023-12-23T17:31:06.440Z,9.64
2023-12-23T17:33:33.557Z,9.68
2023-12-23T17:36:00.633Z,9.66
2023-12-23T17:38:27.643Z,9.70
2023-12-23T17:40:57.258Z,9.71
2023-12-23T17:43:24.236Z,9.69
2023-12-23T17:45:51.230Z,9.71
2023-12-23T17:48:18.287Z,9.75
2023-12-23T17:50:45.286Z,9.75
2023-12-23T17:53:12.303Z,9.77
2023-12-23T17:55:39.449Z,9.77
2023-12-23T17:58:09.054Z,9.79
2023-12-23T18:00:36.047Z,9.81
2023-12-23T18:03:03.739Z,9.81
2023-12-23T18:05:30.886Z,9.77
2023-12-23T18:07:58.128Z,9.78
2023-12-23T18:10:25.255Z,9.81
2023-12-23T18:12:52.446Z,9.81
2023-12-23T18:15:22.189Z,9.80
2023-12-23T18:17:49.685Z,9.78
2023-12-23T18:20:16.896Z,9.76
2023-12-23T18:22:43.956Z,9.77
2023-12-23T18:25:11.007Z,9.76
2023-12-23T18:27:37.986Z,9.73
2023-12-23T18:30:06.496Z,9.78
2023-12-23T18:32:36.200Z,9.79
2023-12-23T18:35:03.604Z,9.79
2023-12-23T18:37:30.659Z,9.79
2023-12-23T18:39:57.768Z,9.78
2023-12-23T18:42:24.740Z,9.77
2023-12-23T18:44:51.743Z,9.75
2023-12-23T18:47:18.973Z,9.77
2023-12-23T18:49:48.639Z,9.74
2023-12-23T18:52:15.616Z,9.75
2023-12-23T18:54:42.699Z,9.81
2023-12-23T18:57:09.789Z,9.79
2023-12-23T18:59:36.828Z,9.78
2023-12-23T19:02:04.301Z,9.71
2023-12-23T19:04:31.404Z,9.72
2023-12-23T19:07:01.010Z,9.74
2023-12-23T19:09:28.023Z,9.74
2023-12-23T19:11:55.032Z,9.74
2023-12-23T19:14:22.038Z,9.75
2023-12-23T19:16:48.979Z,9.70
2023-12-23T19:19:16.270Z,9.65
2023-12-23T19:21:44.460Z,9.56
2023-12-23T19:24:14.344Z,9.52
2023-12-23T19:26:41.377Z,9.48
2023-12-23T19:29:08.484Z,9.48
2023-12-23T19:31:38.986Z,9.42
2023-12-23T19:34:06.042Z,9.35
2023-12-23T19:36:33.015Z,9.31
2023-12-23T19:39:00.005Z,9.41
2023-12-23T19:41:29.738Z,9.29
2023-12-23T19:43:56.830Z,9.33
2023-12-23T19:46:23.861Z,9.21
2023-12-23T19:48:50.903Z,9.14
2023-12-23T19:51:17.918Z,9.11
2023-12-23T19:53:44.841Z,9.06
2023-12-23T19:56:12.837Z,8.89
2023-12-23T19:58:42.548Z,8.95
2023-12-23T20:01:09.667Z,8.92
2023-12-23T20:03:39.008Z,8.86
2023-12-23T20:06:08.202Z,8.86
2023-12-23T20:08:35.313Z,8.78
2023-12-23T20:11:02.533Z,8.81
2023-12-23T20:13:29.657Z,8.81
2023-12-23T20:15:59.331Z,8.77
2023-12-23T20:18:29.406Z,8.83
2023-12-23T20:20:56.770Z,8.84
2023-12-23T20:23:23.890Z,8.80
2023-12-23T20:25:50.911Z,8.87
2023-12-23T20:28:18.761Z,8.90
2023-12-23T20:30:45.756Z,8.88
2023-12-23T20:33:15.518Z,8.88
2023-12-23T20:35:42.793Z,8.92
2023-12-23T20:38:09.900Z,8.87
2023-12-23T20:40:37.174Z,8.88
2023-12-23T20:43:04.417Z,8.91
2023-12-23T20:45:31.374Z,8.89
2023-12-23T20:47:58.432Z,8.83
2023-12-23T20:50:28.255Z,8.85
2023-12-23T20:52:55.573Z,8.81
2023-12-23T20:55:22.655Z,8.78
2023-12-23T20:57:49.643Z,8.75
2023-12-23T21:00:17.132Z,8.75
2023-12-23T21:02:44.231Z,8.77
2023-12-23T21:05:11.360Z,8.73
2023-12-23T21:07:41.626Z,8.76
2023-12-23T21:10:09.615Z,8.79
2023-12-23T21:12:36.900Z,8.75
2023-12-23T21:15:04.481Z,8.91
2023-12-23T21:17:31.637Z,8.84
2023-12-23T21:19:58.805Z,8.87
2023-12-23T21:22:25.833Z,8.86
2023-12-23T21:24:55.380Z,8.86
2023-12-23T21:27:22.814Z,8.92
2023-12-23T21:29:50.034Z,8.89
2023-12-23T21:32:17.194Z,8.94
2023-12-23T21:34:44.841Z,8.90
2023-12-23T21:37:11.798Z,8.96
2023-12-23T21:39:38.885Z,8.98
2023-12-23T21:42:08.683Z,8.95
2023-12-23T21:44:35.705Z,8.93
2023-12-23T21:47:02.690Z,8.93
2023-12-23T21:49:29.937Z,8.89
2023-12-23T21:51:57.045Z,8.96
2023-12-23T21:54:24.008Z,8.90
2023-12-23T21:56:51.005Z,8.91
2023-12-23T21:59:20.551Z,8.87
2023-12-23T22:01:47.841Z,8.86
2023-12-23T22:04:14.817Z,8.81
2023-12-23T22:06:41.760Z,8.75
2023-12-23T22:09:08.711Z,8.77
2023-12-23T22:11:35.751Z,8.74
2023-12-23T22:14:02.807Z,8.67
2023-12-23T22:16:32.431Z,8.68
2023-12-23T22:18:59.498Z,8.69
2023-12-23T22:21:26.468Z,8.67
2023-12-23T22:23:53.477Z,8.68
2023-12-23T22:26:20.534Z,8.65
2023-12-23T22:28:47.633Z,8.56
2023-12-23T22:31:14.683Z,8.58
2023-12-23T22:33:44.353Z,8.58
2023-12-23T22:36:11.472Z,8.55
2023-12-23T22:38:38.550Z,8.52
2023-12-23T22:41:06.352Z,8.59
2023-12-23T22:43:33.614Z,8.54
2023-12-23T22:46:00.639Z,8.58
2023-12-23T22:48:27.627Z,8.62
2023-12-23T22:50:57.279Z,8.54
2023-12-23T22:53:24.334Z,8.53
2023-12-23T22:55:51.379Z,8.47
2023-12-23T22:58:18.388Z,8.51
2023-12-23T23:00:45.388Z,8.53
2023-12-23T23:03:12.421Z,8.54
2023-12-23T23:05:39.559Z,8.57
2023-12-23T23:08:09.347Z,8.58
2023-12-23T23:10:36.333Z,8.64
2023-12-23T23:13:03.306Z,8.67
2023-12-23T23:15:30.324Z,8.72
2023-12-23T23:17:57.676Z,8.73
2023-12-23T23:20:24.862Z,8.74
2023-12-23T23:22:52.623Z,8.77
2023-12-23T23:25:22.365Z,8.82
2023-12-23T23:27:49.344Z,8.86
2023-12-23T23:30:16.646Z,8.84
2023-12-23T23:32:43.711Z,8.86
2023-12-23T23:35:12.249Z,8.87
2023-12-23T23:37:39.800Z,8.93
2023-12-23T23:40:08.013Z,8.94
2023-12-23T23:42:37.549Z,8.94
2023-12-23T23:45:05.404Z,8.95
2023-12-23T23:47:32.491Z,8.92
2023-12-23T23:49:59.559Z,8.96
2023-12-23T23:52:26.771Z,8.95
2023-12-23T23:54:53.938Z,8.92
2023-12-23T23:57:20.888Z,8.92
2023-12-23T23:59:50.498Z,8.97
